»·PEaware :: N915TB KVCV-KSNA

N915TB :: KVCV-KSNA

FLIGHT INFORMATION

Flight Status: Arrived
Operator: Privately registered:
United States
More flights under this callsign
Pilot: Jake M. (20491)
Aircraft: SOCATA TBM-900
(TBM9)
More flights by this aircraft type
Origin: KVCV Socal Logistics
United States
Destination: KSNA John Wayne-Orange Co
United States
More flights between these airports :: More routes between these airports
Route: HESPE V210 POM V363 WOKRO
File this flight plan on PilotEdge
Remarks:
Altitude:
(Current/Filed)
12,000ft
Speed:
(Current/Filed)
280kts
Departed: 11-Feb-20 04:04 PM
Arrived: 11-Feb-20 04:29 PM
Distance/Time
Traveled:
60nm/0:25
Distance/Time
To Go:
Arrived

Flight Plot

Page will automatically refresh every two minutes.

Flight plan parsing failed; only flown route is shown


Map Options




Map Legend


Flown Route
Filed Route
Departure Airport
Arrival Airport
Navaid (VOR, NDB)
Fix

Horizontal Profiles

Position Reports

Time Latitude Longitude Heading Altitude Ground
Speed
11-Feb-20 15:49 34.585185 -117.380224 307 2875ft 0kts
11-Feb-20 15:50 34.585185 -117.380224 307 2875ft 0kts
11-Feb-20 15:51 34.585185 -117.380224 307 2875ft 0kts
11-Feb-20 15:52 34.585185 -117.380224 307 2875ft 0kts
11-Feb-20 15:53 34.585185 -117.380224 307 2875ft 0kts
11-Feb-20 15:54 34.585185 -117.380224 307 2875ft 0kts
11-Feb-20 15:55 34.585185 -117.380224 307 2875ft 0kts
11-Feb-20 15:56 34.585185 -117.380224 307 2875ft 0kts
11-Feb-20 15:57 34.585185 -117.380224 307 2875ft 0kts
11-Feb-20 15:58 34.585185 -117.380224 307 2875ft 0kts
11-Feb-20 15:59 34.585492 -117.380640 309 2874ft 0kts
11-Feb-20 16:00 34.585492 -117.380640 309 2874ft 0kts
11-Feb-20 16:01 34.585706 -117.381033 273 2874ft 8kts
11-Feb-20 16:02 34.582064 -117.384300 179 2879ft 25kts
11-Feb-20 16:03 34.582265 -117.386390 357 2879ft 43kts
11-Feb-20 16:04 34.609597 -117.398664 275 3561ft 145kts
11-Feb-20 16:05 34.602995 -117.445825 260 5336ft 143kts
11-Feb-20 16:06 34.587306 -117.492839 202 6737ft 167kts
11-Feb-20 16:07 34.540706 -117.485567 164 8589ft 172kts
11-Feb-20 16:08 34.493150 -117.472944 163 10341ft 183kts
11-Feb-20 16:09 34.441401 -117.459002 164 11923ft 198kts
11-Feb-20 16:10 34.377759 -117.441820 165 12108ft 264kts
11-Feb-20 16:11 34.313545 -117.469473 232 12094ft 266kts
11-Feb-20 16:12 34.264397 -117.536183 232 12083ft 264kts
11-Feb-20 16:13 34.215500 -117.602308 232 12079ft 262kts
11-Feb-20 16:14 34.166746 -117.668107 232 12058ft 262kts
11-Feb-20 16:15 34.117614 -117.734346 232 11547ft 274kts
11-Feb-20 16:16 34.055028 -117.787082 177 10043ft 298kts
11-Feb-20 16:17 33.977392 -117.784956 178 8680ft 299kts
11-Feb-20 16:18 33.895769 -117.783234 178 7178ft 274kts
11-Feb-20 16:19 33.825299 -117.781750 179 5520ft 239kts
11-Feb-20 16:20 33.772590 -117.812010 231 3778ft 214kts
11-Feb-20 16:21 33.760456 -117.866413 330 3007ft 194kts
11-Feb-20 16:22 33.814917 -117.855785 11 3008ft 203kts
11-Feb-20 16:23 33.823596 -117.799864 111 3010ft 204kts
11-Feb-20 16:24 33.778669 -117.801757 214 2126ft 208kts
11-Feb-20 16:25 33.735290 -117.831073 208 1236ft 147kts
11-Feb-20 16:26 33.703734 -117.851056 208 568ft 115kts
11-Feb-20 16:27 33.676245 -117.868491 206 46ft 43kts
11-Feb-20 16:28 33.674658 -117.871030 16 49ft 10kts
11-Feb-20 16:29 33.676208 -117.871013 47 49ft 0kts
11-Feb-20 16:30 33.676208 -117.871013 47 49ft 0kts
11-Feb-20 16:31 33.676208 -117.871013 47 49ft 0kts
11-Feb-20 16:32 33.676208 -117.871013 47 49ft 0kts
11-Feb-20 16:33 33.676208 -117.871013 47 49ft 0kts
11-Feb-20 16:34 33.676208 -117.871013 47 49ft 0kts
11-Feb-20 16:35 33.676208 -117.871013 47 49ft 0kts
11-Feb-20 16:36 33.676208 -117.871013 47 49ft 0kts
11-Feb-20 16:37 33.676208 -117.871013 47 49ft 0kts
11-Feb-20 16:38 33.676208 -117.871013 47 49ft 0kts
11-Feb-20 16:39 33.676208 -117.871013 47 49ft 0kts
11-Feb-20 16:40 33.676208 -117.871013 47 49ft 0kts
11-Feb-20 16:41 33.676208 -117.871013 47 49ft 0kts
11-Feb-20 16:42 33.676208 -117.871013 47 49ft 0kts

Navigation Log

Ident Type
Flight plan parsing failed, navigation log unavailable